Brewster, Nebraska
Current Conditions -  °F | °C
As of 7:15 PM on Friday 19 Dec 2014 (Local Time) from KTIF Reporting Station
Clear Clear  
Wind Chill: 25°   Ceiling: Unl
Heat Index: 30°   Visibility: 10mi
Dew Point: 26°   Wind: 5mph
Humidity: 86%   Direction: 280°W
Pressure: 29.99"   Gusts: NA
Location:  41.94°N, 99.86°W
Report Text: KTIF 200115Z AUTO 28004KT 10SM CLR M01/M03 A2999 RMK AO2 T10131033
Loading
Personal Weather Stations






























Interactive Weather Map New forecast layout! Learn more

10-Day Weather Forecast

Advertisements
Track Severe Weather on mobile